Time;durP1;ratioP1;P1;durP2;ratioP2;P2;SDS_P1;SDS_P2;PMS_P1;PMS_P2;Temp;Humidity;BMP_temperature;BMP_pressure;BME280_temperature;BME280_humidity;BME280_pressure;Samples;Min_cycle;Max_cycle;Signal;HPM_P1;HPM_P2
2021/12/24 00:00:00;;;;;;;32.22;20.85;;;8.40;99.90;;;;;;5031355;28;20463;-59
2021/12/24 00:02:26;;;;;;;30.05;19.10;;;8.40;99.90;;;;;;5031783;28;20029;-59
2021/12/24 00:04:52;;;;;;;28.90;19.70;;;8.40;99.90;;;;;;5033980;28;20033;-59
2021/12/24 00:07:17;;;;;;;30.60;19.17;;;8.50;99.90;;;;;;5026807;28;20128;-59
2021/12/24 00:09:43;;;;;;;27.40;17.70;;;8.50;99.90;;;;;;5016790;28;20036;-59
2021/12/24 00:12:15;;;;;;;27.50;17.38;;;8.60;99.90;;;;;;5029854;28;20104;-59
2021/12/24 00:14:46;;;;;;;26.33;16.80;;;8.70;99.90;;;;;;5032870;28;20430;-59
2021/12/24 00:17:15;;;;;;;23.45;14.40;;;8.80;99.90;;;;;;5031539;28;20402;-59
2021/12/24 00:19:49;;;;;;;25.25;15.85;;;8.80;99.90;;;;;;5033648;28;20097;-59
2021/12/24 00:22:56;;;;;;;26.83;17.23;;;8.90;99.90;;;;;;5033998;28;20443;-59
2021/12/24 00:36:04;;;;;;;27.70;16.75;;;9.00;99.90;;;;;;5020205;28;20084;-59
2021/12/24 00:38:29;;;;;;;28.00;17.15;;;9.00;99.90;;;;;;5011226;28;20026;-59
2021/12/24 00:40:55;;;;;;;28.85;17.00;;;9.00;99.90;;;;;;5010671;28;20037;-59
2021/12/24 00:43:21;;;;;;;27.15;15.40;;;9.00;99.90;;;;;;5010965;28;20032;-59
2021/12/24 00:45:49;;;;;;;26.75;17.52;;;9.00;99.90;;;;;;5010920;28;20395;-59
2021/12/24 00:48:16;;;;;;;32.33;18.17;;;9.10;99.90;;;;;;5010715;28;20606;-59
2021/12/24 00:51:17;;;;;;;32.63;17.30;;;9.10;99.90;;;;;;5010761;28;20034;-59
2021/12/24 00:56:08;;;;;;;29.00;17.45;;;9.10;99.90;;;;;;5010961;28;20021;-59
2021/12/24 00:58:34;;;;;;;29.13;18.20;;;9.10;99.90;;;;;;5011262;28;20025;-59
2021/12/24 01:01:00;;;;;;;27.90;17.75;;;9.10;99.90;;;;;;5011130;28;20018;-59
2021/12/24 01:03:27;;;;;;;30.92;17.23;;;9.10;99.90;;;;;;5017933;28;20381;-59
2021/12/24 01:05:53;;;;;;;27.77;16.80;;;9.10;99.90;;;;;;5015222;28;20030;-59
2021/12/24 01:08:18;;;;;;;31.35;17.67;;;9.10;99.90;;;;;;5043608;28;20056;-59
2021/12/24 01:10:53;;;;;;;28.42;17.23;;;9.10;99.90;;;;;;5030236;28;20030;-59
2021/12/24 01:13:19;;;;;;;34.05;17.20;;;9.10;99.90;;;;;;5030081;28;20033;-59
2021/12/24 01:16:25;;;;;;;30.10;18.30;;;9.00;99.90;;;;;;5028639;28;20032;-59
2021/12/24 01:18:50;;;;;;;28.50;18.10;;;9.10;99.90;;;;;;5030838;28;20405;-59
2021/12/24 01:21:47;;;;;;;34.13;19.08;;;9.10;99.90;;;;;;5029826;28;20102;-59
2021/12/24 01:24:19;;;;;;;33.60;18.65;;;9.10;99.90;;;;;;5029783;28;20033;-59
2021/12/24 01:42:46;;;;;;;30.90;18.75;;;9.00;99.90;;;;;;5033944;28;20026;-59
2021/12/24 01:45:27;;;;;;;29.52;17.02;;;9.00;99.90;;;;;;5034464;28;20070;-59
2021/12/24 01:47:56;;;;;;;28.75;17.73;;;9.00;99.90;;;;;;5034575;28;20029;-59
2021/12/24 01:50:24;;;;;;;31.77;19.08;;;9.00;99.90;;;;;;5033491;28;20375;-59
2021/12/24 01:52:51;;;;;;;27.90;18.52;;;8.90;99.90;;;;;;5027831;28;20063;-59
2021/12/24 01:55:18;;;;;;;35.53;19.55;;;8.90;99.90;;;;;;5014932;28;20025;-59
2021/12/24 01:57:44;;;;;;;29.75;17.08;;;9.00;99.90;;;;;;5033636;28;20521;-59
2021/12/24 02:00:17;;;;;;;31.85;18.73;;;9.00;99.90;;;;;;5033922;28;20021;-59
2021/12/24 02:02:43;;;;;;;32.70;18.42;;;9.00;99.90;;;;;;5032199;28;20029;-59
2021/12/24 02:05:09;;;;;;;32.58;19.00;;;9.00;99.90;;;;;;5033805;28;20025;-59
2021/12/24 02:07:36;;;;;;;32.92;18.90;;;9.00;99.90;;;;;;5033818;28;20566;-59
2021/12/24 02:10:04;;;;;;;27.98;18.73;;;8.90;99.90;;;;;;5031500;28;20053;-59
2021/12/24 02:12:32;;;;;;;34.30;17.10;;;8.90;99.90;;;;;;5033835;28;20027;-59
2021/12/24 02:14:59;;;;;;;32.78;19.15;;;8.90;99.90;;;;;;5033383;28;20029;-59
2021/12/24 02:28:21;;;;;;;32.25;18.38;;;8.90;99.90;;;;;;5033378;28;20040;-59
2021/12/24 02:30:48;;;;;;;29.58;16.77;;;8.90;99.90;;;;;;5033940;28;20025;-59
2021/12/24 02:33:14;;;;;;;29.65;17.20;;;8.90;99.90;;;;;;5033345;28;20079;-59
2021/12/24 02:35:41;;;;;;;30.73;18.05;;;9.00;99.90;;;;;;5033894;28;20470;-59
2021/12/24 02:38:06;;;;;;;31.48;15.52;;;9.00;99.90;;;;;;5033790;28;20036;-59
2021/12/24 02:40:32;;;;;;;31.10;17.42;;;9.00;99.90;;;;;;5033380;28;20101;-59
2021/12/24 02:42:59;;;;;;;28.65;17.13;;;9.00;99.90;;;;;;5033512;28;20028;-59
2021/12/24 02:45:27;;;;;;;31.15;16.92;;;9.00;99.90;;;;;;5034041;28;20028;-59
2021/12/24 02:55:33;;;;;;;36.45;16.60;;;9.00;99.90;;;;;;5033466;28;20048;-59
2021/12/24 02:57:59;;;;;;;29.98;15.60;;;9.00;99.90;;;;;;5032902;28;20014;-59
2021/12/24 03:00:27;;;;;;;28.10;15.98;;;9.00;99.90;;;;;;5033153;28;20048;-60
2021/12/24 03:02:54;;;;;;;31.50;16.25;;;9.10;99.90;;;;;;5032108;28;20129;-59
2021/12/24 03:05:23;;;;;;;28.20;15.80;;;9.00;99.90;;;;;;5033437;28;20021;-59
2021/12/24 03:07:50;;;;;;;27.85;15.13;;;9.00;99.90;;;;;;5033139;28;20482;-59
2021/12/24 03:10:18;;;;;;;26.83;15.48;;;9.00;99.90;;;;;;5032847;28;20501;-59
2021/12/24 03:12:45;;;;;;;27.88;14.95;;;9.00;99.90;;;;;;5032749;28;20029;-59
2021/12/24 03:15:16;;;;;;;28.55;15.32;;;9.10;99.90;;;;;;5032981;28;20161;-59
2021/12/24 03:17:47;;;;;;;31.80;16.40;;;9.10;99.90;;;;;;5031632;28;20116;-59
2021/12/24 03:20:13;;;;;;;27.30;14.20;;;9.10;99.90;;;;;;5033370;28;20018;-59
2021/12/24 03:23:02;;;;;;;34.30;17.27;;;9.00;99.90;;;;;;5032728;28;20541;-59
2021/12/24 03:25:27;;;;;;;26.48;14.77;;;9.00;99.90;;;;;;5032799;28;20518;-59
2021/12/24 03:27:53;;;;;;;25.52;14.73;;;9.00;99.90;;;;;;5031131;28;20025;-59
2021/12/24 03:30:19;;;;;;;33.05;15.35;;;9.00;99.90;;;;;;5032967;28;20520;-59
2021/12/24 03:32:44;;;;;;;31.45;16.10;;;9.00;99.90;;;;;;5031778;28;20548;-59
2021/12/24 03:35:10;;;;;;;28.40;15.57;;;9.00;99.90;;;;;;5032471;28;20367;-59
2021/12/24 03:37:36;;;;;;;27.70;14.30;;;9.00;99.90;;;;;;5032558;28;20021;-59
2021/12/24 03:40:03;;;;;;;35.97;16.85;;;9.00;99.90;;;;;;5032528;28;20034;-59
2021/12/24 03:42:29;;;;;;;36.47;17.83;;;9.00;99.90;;;;;;5032043;28;20597;-59
2021/12/24 03:45:08;;;;;;;36.30;16.30;;;9.00;99.90;;;;;;5032454;28;20053;-59
2021/12/24 03:47:38;;;;;;;35.45;15.90;;;9.00;99.90;;;;;;5031969;28;20028;-59
2021/12/24 03:50:11;;;;;;;36.58;16.75;;;9.00;99.90;;;;;;5031766;28;20021;-59
2021/12/24 03:53:02;;;;;;;37.47;15.88;;;9.00;99.90;;;;;;5031550;28;20457;-59
2021/12/24 03:55:25;;;;;;;35.90;15.52;;;9.00;99.90;;;;;;5031608;28;20411;-59
2021/12/24 03:57:51;;;;;;;32.00;16.58;;;9.00;99.90;;;;;;5031586;28;20036;-59
2021/12/24 04:00:20;;;;;;;45.65;17.13;;;9.00;99.90;;;;;;5031797;28;20103;-59
2021/12/24 04:02:46;;;;;;;32.28;16.02;;;9.00;99.90;;;;;;5030467;28;20027;-59
2021/12/24 04:05:13;;;;;;;38.92;17.30;;;9.10;99.90;;;;;;5031973;28;20331;-59
2021/12/24 04:07:39;;;;;;;32.50;16.25;;;9.00;99.90;;;;;;5031832;28;20328;-59
2021/12/24 04:10:17;;;;;;;36.85;17.88;;;9.00;99.90;;;;;;5030445;28;20021;-59
2021/12/24 04:12:43;;;;;;;36.45;17.70;;;9.00;99.90;;;;;;5031642;28;20052;-59
2021/12/24 04:15:09;;;;;;;32.78;17.73;;;9.00;99.90;;;;;;5031721;28;20045;-59
2021/12/24 04:17:38;;;;;;;39.85;17.23;;;9.00;99.90;;;;;;5031501;28;20017;-59
2021/12/24 04:25:28;;;;;;;35.88;15.70;;;9.00;99.90;;;;;;5031617;28;20154;-59
2021/12/24 04:27:57;;;;;;;35.85;18.40;;;9.00;99.90;;;;;;5031681;28;20156;-59
2021/12/24 04:30:28;;;;;;;37.85;18.73;;;8.90;99.90;;;;;;5031845;28;20029;-59
2021/12/24 04:33:06;;;;;;;39.67;16.65;;;9.00;99.90;;;;;;5031358;28;20022;-59
2021/12/24 04:35:40;;;;;;;34.83;16.38;;;8.90;99.90;;;;;;5030453;28;20021;-59
2021/12/24 04:51:30;;;;;;;30.63;17.60;;;9.00;99.90;;;;;;5031541;28;20075;-59
2021/12/24 05:04:55;;;;;;;46.03;18.10;;;9.00;99.90;;;;;;5031233;28;20030;-59
2021/12/24 05:09:58;;;;;;;30.63;16.25;;;9.00;99.90;;;;;;5031310;28;20395;-59
2021/12/24 05:12:24;;;;;;;36.50;16.55;;;9.00;99.90;;;;;;5030021;28;20036;-59
2021/12/24 05:14:50;;;;;;;39.08;18.17;;;9.00;99.90;;;;;;5031245;28;20018;-59
2021/12/24 05:17:32;;;;;;;37.35;17.83;;;9.00;99.90;;;;;;5030935;28;20029;-59
2021/12/24 05:22:42;;;;;;;34.88;16.67;;;9.00;99.90;;;;;;5031640;28;20110;-59
2021/12/24 05:25:08;;;;;;;33.95;16.73;;;9.00;99.90;;;;;;5029862;28;20121;-59
2021/12/24 05:27:35;;;;;;;42.47;19.92;;;9.00;99.90;;;;;;5031317;28;20402;-59
2021/12/24 05:30:02;;;;;;;36.88;17.83;;;9.00;99.90;;;;;;5031251;28;20037;-59
2021/12/24 05:32:27;;;;;;;33.92;18.33;;;9.10;99.90;;;;;;5031179;28;20057;-59
2021/12/24 05:34:53;;;;;;;40.22;19.20;;;9.10;99.90;;;;;;5030981;28;20139;-59
2021/12/24 05:37:19;;;;;;;36.33;19.85;;;9.00;99.90;;;;;;5030796;28;20033;-59
2021/12/24 05:39:44;;;;;;;37.80;17.85;;;9.00;99.90;;;;;;5031294;28;20017;-59
2021/12/24 05:42:10;;;;;;;40.65;19.42;;;9.00;99.90;;;;;;5031073;28;20536;-59
2021/12/24 05:44:36;;;;;;;42.97;18.90;;;9.00;99.90;;;;;;5031050;28;20069;-59
2021/12/24 05:47:01;;;;;;;39.75;17.98;;;9.00;99.90;;;;;;5029431;28;20025;-59
2021/12/24 05:49:27;;;;;;;36.05;18.10;;;9.00;99.90;;;;;;5030454;28;20032;-59
2021/12/24 05:51:52;;;;;;;39.88;19.45;;;9.00;99.90;;;;;;5030808;28;20084;-58
2021/12/24 05:54:18;;;;;;;34.92;17.95;;;8.90;99.90;;;;;;5031274;28;20030;-59
2021/12/24 05:56:45;;;;;;;40.22;19.52;;;8.90;99.90;;;;;;5030680;28;20052;-59
2021/12/24 05:59:12;;;;;;;42.78;19.70;;;8.90;99.90;;;;;;5030852;28;20072;-59
2021/12/24 06:01:37;;;;;;;39.20;19.48;;;8.90;99.90;;;;;;5030720;28;20060;-59
2021/12/24 06:04:03;;;;;;;31.95;17.88;;;8.90;99.90;;;;;;5029482;28;20052;-59
2021/12/24 06:06:29;;;;;;;38.35;19.10;;;8.90;99.90;;;;;;5033040;28;20021;-59
2021/12/24 06:08:55;;;;;;;37.72;18.50;;;8.90;99.90;;;;;;5034153;28;20395;-59
2021/12/24 06:11:20;;;;;;;35.35;18.27;;;8.90;99.90;;;;;;5034137;28;20029;-59
2021/12/24 06:13:51;;;;;;;29.83;17.67;;;9.00;99.90;;;;;;5033191;28;20037;-59
2021/12/24 06:16:17;;;;;;;40.45;18.20;;;9.00;99.90;;;;;;5034258;28;20698;-59
2021/12/24 06:18:43;;;;;;;33.97;17.35;;;8.90;99.90;;;;;;5033903;28;20025;-59
2021/12/24 06:21:09;;;;;;;30.73;15.43;;;8.90;99.90;;;;;;5034049;28;20021;-59
2021/12/24 06:23:37;;;;;;;43.67;18.00;;;8.90;99.90;;;;;;5034346;28;20018;-59
2021/12/24 06:26:04;;;;;;;40.35;17.35;;;9.00;99.90;;;;;;5033969;28;20076;-59
2021/12/24 06:28:30;;;;;;;33.05;17.67;;;9.00;99.90;;;;;;5033923;28;20609;-59
2021/12/24 06:30:56;;;;;;;33.33;17.15;;;9.00;99.90;;;;;;5033419;28;20029;-59
2021/12/24 06:33:21;;;;;;;40.35;18.13;;;9.00;99.90;;;;;;5033363;28;20029;-59
2021/12/24 06:35:47;;;;;;;29.45;16.13;;;9.00;99.90;;;;;;5033564;28;20429;-59
2021/12/24 06:38:13;;;;;;;29.55;15.75;;;9.00;99.90;;;;;;5033619;28;20500;-59
2021/12/24 06:40:39;;;;;;;35.88;17.13;;;9.00;99.90;;;;;;5033468;28;20022;-59
2021/12/24 06:43:05;;;;;;;33.72;16.85;;;8.90;99.90;;;;;;5034132;28;20433;-59
2021/12/24 06:45:32;;;;;;;27.70;17.15;;;9.00;99.90;;;;;;5034087;28;20080;-59
2021/12/24 06:48:00;;;;;;;33.70;17.98;;;9.00;99.90;;;;;;5033971;28;20369;-59
2021/12/24 06:50:26;;;;;;;31.77;17.77;;;8.90;99.90;;;;;;5033822;28;20522;-59
2021/12/24 06:52:53;;;;;;;33.35;18.15;;;9.00;99.90;;;;;;5033871;28;20080;-59
2021/12/24 06:55:19;;;;;;;33.30;17.83;;;8.90;99.90;;;;;;5033823;28;20028;-59
2021/12/24 06:57:45;;;;;;;38.80;19.40;;;8.90;99.90;;;;;;5033495;28;20108;-59
2021/12/24 07:00:15;;;;;;;34.72;18.52;;;8.90;99.90;;;;;;5031553;28;20409;-59
2021/12/24 07:02:41;;;;;;;38.15;20.00;;;8.80;99.90;;;;;;5033314;28;20014;-59
2021/12/24 07:05:08;;;;;;;32.42;19.05;;;8.80;99.90;;;;;;5031740;28;20171;-59
2021/12/24 07:07:33;;;;;;;36.78;17.38;;;8.80;99.90;;;;;;5033214;28;20390;-59
2021/12/24 07:09:59;;;;;;;38.17;19.13;;;8.80;99.90;;;;;;5033508;28;20025;-59
2021/12/24 07:12:25;;;;;;;32.72;17.75;;;8.80;99.90;;;;;;5031680;28;20022;-59
2021/12/24 07:14:51;;;;;;;39.47;19.67;;;8.80;99.90;;;;;;5033321;28;20025;-59
2021/12/24 07:17:17;;;;;;;36.25;17.67;;;8.80;99.90;;;;;;5031034;28;20483;-59
2021/12/24 07:19:42;;;;;;;30.05;17.73;;;8.70;99.90;;;;;;5033134;28;20087;-59
2021/12/24 07:22:08;;;;;;;39.30;18.92;;;8.70;99.90;;;;;;5033268;28;20033;-59
2021/12/24 07:24:37;;;;;;;37.05;20.00;;;8.60;99.90;;;;;;5033195;28;20506;-59
2021/12/24 07:27:03;;;;;;;35.25;17.85;;;8.60;99.90;;;;;;5032953;28;20049;-59
2021/12/24 07:29:30;;;;;;;32.20;18.05;;;8.60;99.90;;;;;;5033596;28;20159;-59
2021/12/24 07:31:56;;;;;;;35.47;18.20;;;8.60;99.90;;;;;;5033618;28;20036;-59
2021/12/24 07:34:22;;;;;;;36.35;18.00;;;8.50;99.90;;;;;;5032896;28;20029;-59
2021/12/24 07:36:48;;;;;;;32.65;17.25;;;8.50;99.90;;;;;;5033170;28;20067;-59
2021/12/24 07:39:14;;;;;;;33.70;17.67;;;8.50;99.90;;;;;;5032605;28;20021;-59
2021/12/24 07:41:40;;;;;;;31.80;16.70;;;8.50;99.90;;;;;;5032689;28;20384;-59
2021/12/24 07:44:06;;;;;;;33.85;17.83;;;8.60;99.90;;;;;;5032687;28;20427;-59
2021/12/24 07:46:39;;;;;;;40.25;18.35;;;8.50;99.90;;;;;;5033748;28;20136;-59
2021/12/24 07:49:18;;;;;;;37.10;17.73;;;8.50;99.90;;;;;;5033006;28;20038;-59
2021/12/24 07:52:08;;;;;;;38.72;18.15;;;8.40;99.90;;;;;;5032855;28;20215;-59
2021/12/24 07:54:41;;;;;;;34.67;18.58;;;8.40;99.90;;;;;;5030701;28;20029;-59
2021/12/24 07:57:09;;;;;;;40.70;19.52;;;8.30;99.90;;;;;;5032401;28;20046;-59
2021/12/24 07:59:37;;;;;;;33.53;18.65;;;8.30;99.90;;;;;;5032045;28;20053;-59
2021/12/24 08:02:06;;;;;;;36.30;19.20;;;8.20;99.90;;;;;;5032311;28;20059;-59
2021/12/24 08:04:31;;;;;;;33.72;19.27;;;8.20;99.90;;;;;;5032152;28;20025;-59
2021/12/24 08:07:00;;;;;;;36.60;20.67;;;8.20;99.90;;;;;;5032306;28;20029;-59
2021/12/24 08:09:26;;;;;;;36.42;19.35;;;8.30;99.90;;;;;;5032002;28;20025;-59
2021/12/24 08:11:52;;;;;;;40.95;19.85;;;8.30;99.90;;;;;;5031972;28;20540;-59
2021/12/24 08:14:17;;;;;;;40.95;20.65;;;8.20;99.90;;;;;;5030528;28;20116;-59
2021/12/24 08:16:44;;;;;;;44.75;20.80;;;8.30;99.90;;;;;;5032673;28;20033;-60
2021/12/24 08:19:10;;;;;;;41.35;20.75;;;8.20;99.90;;;;;;5031765;28;20198;-59
2021/12/24 08:21:36;;;;;;;45.20;22.20;;;8.20;99.90;;;;;;5032487;28;20096;-59
2021/12/24 08:24:02;;;;;;;37.60;20.30;;;8.20;99.90;;;;;;5032268;28;20108;-59
2021/12/24 08:26:29;;;;;;;43.38;22.08;;;8.10;99.90;;;;;;5030493;28;20073;-59
2021/12/24 08:28:55;;;;;;;35.25;20.85;;;8.20;99.90;;;;;;5032116;28;20101;-59
2021/12/24 08:31:20;;;;;;;40.88;21.10;;;8.10;99.90;;;;;;5031870;28;20112;-59
2021/12/24 08:33:46;;;;;;;38.58;21.95;;;8.20;99.90;;;;;;5031728;28;20029;-59
2021/12/24 08:36:12;;;;;;;46.50;22.80;;;8.20;99.90;;;;;;5031982;28;20437;-59
2021/12/24 08:38:39;;;;;;;35.00;21.92;;;8.20;99.90;;;;;;5031614;28;20477;-59
2021/12/24 08:41:04;;;;;;;41.83;22.45;;;8.20;99.90;;;;;;5031976;28;20026;-59
2021/12/24 08:43:31;;;;;;;38.00;20.40;;;8.30;99.90;;;;;;5031637;28;20067;-59
2021/12/24 08:45:57;;;;;;;35.65;20.50;;;8.20;99.90;;;;;;5030337;28;20033;-59
2021/12/24 08:48:22;;;;;;;45.22;23.48;;;8.20;99.90;;;;;;5031656;28;20021;-59
2021/12/24 08:50:48;;;;;;;48.00;24.67;;;8.20;99.90;;;;;;5032453;28;20025;-59
2021/12/24 08:53:14;;;;;;;46.80;24.98;;;8.20;99.90;;;;;;5031631;28;20037;-59
2021/12/24 08:55:41;;;;;;;41.30;22.35;;;8.10;99.90;;;;;;5031290;28;20036;-59
2021/12/24 08:58:07;;;;;;;46.35;24.10;;;8.20;99.90;;;;;;5030233;28;20029;-59
2021/12/24 09:00:34;;;;;;;52.92;25.48;;;8.10;99.90;;;;;;5029969;28;20025;-59
2021/12/24 09:03:01;;;;;;;47.78;25.90;;;8.20;99.90;;;;;;5029452;28;20032;-59
2021/12/24 09:05:28;;;;;;;47.22;23.67;;;8.20;99.90;;;;;;5030404;28;20049;-59
2021/12/24 09:07:53;;;;;;;50.55;23.70;;;8.20;99.90;;;;;;5031221;28;20041;-59
2021/12/24 09:10:19;;;;;;;49.47;24.40;;;8.20;99.90;;;;;;5031041;28;20022;-59
2021/12/24 09:12:45;;;;;;;49.05;24.45;;;8.30;99.90;;;;;;5031194;28;20025;-59
2021/12/24 09:15:13;;;;;;;45.10;23.55;;;8.30;99.90;;;;;;5031352;28;20032;-59
2021/12/24 09:17:44;;;;;;;48.00;24.02;;;8.30;99.90;;;;;;5031741;28;20382;-59
2021/12/24 09:20:13;;;;;;;43.25;22.75;;;8.30;99.90;;;;;;5031195;28;20025;-59
2021/12/24 09:22:40;;;;;;;47.22;24.70;;;8.40;99.90;;;;;;5032444;28;20100;-59
2021/12/24 09:25:07;;;;;;;44.95;24.15;;;8.40;99.90;;;;;;5034259;28;20124;-60
2021/12/24 09:27:33;;;;;;;45.00;24.35;;;8.50;99.90;;;;;;5033069;28;20029;-59
2021/12/24 09:29:59;;;;;;;43.90;24.05;;;8.60;99.90;;;;;;5034639;28;20541;-60
2021/12/24 09:32:28;;;;;;;49.00;25.08;;;8.60;99.90;;;;;;5033514;28;20025;-59
2021/12/24 09:34:54;;;;;;;41.72;25.33;;;8.60;99.90;;;;;;5031221;28;20057;-59
2021/12/24 09:37:20;;;;;;;44.92;25.17;;;8.70;99.90;;;;;;5030977;28;20025;-59
2021/12/24 09:39:46;;;;;;;43.30;24.55;;;8.70;99.90;;;;;;5030921;28;20310;-59
2021/12/24 09:42:12;;;;;;;46.25;23.92;;;8.80;99.90;;;;;;5034662;28;20028;-59
2021/12/24 09:44:38;;;;;;;43.03;25.73;;;8.80;99.90;;;;;;5035049;28;20037;-59
2021/12/24 09:47:04;;;;;;;49.00;25.33;;;8.70;99.90;;;;;;5034856;28;20021;-59
2021/12/24 09:49:29;;;;;;;46.60;25.65;;;8.70;99.90;;;;;;5034586;28;20076;-59
2021/12/24 09:51:56;;;;;;;40.67;22.27;;;8.60;99.90;;;;;;5034791;28;20564;-59
2021/12/24 09:54:24;;;;;;;42.30;22.67;;;8.70;99.90;;;;;;5033448;28;20034;-59
2021/12/24 09:56:51;;;;;;;46.08;23.05;;;8.70;99.90;;;;;;5034591;28;20017;-59
2021/12/24 09:59:18;;;;;;;47.75;21.05;;;8.70;99.90;;;;;;5034029;28;20549;-59
2021/12/24 10:01:54;;;;;;;45.30;22.35;;;8.70;99.90;;;;;;5033156;28;20083;-59
2021/12/24 10:04:23;;;;;;;39.05;21.33;;;8.70;99.90;;;;;;5034600;28;20037;-59
2021/12/24 10:06:59;;;;;;;39.25;21.85;;;8.70;99.90;;;;;;5033162;28;20033;-59
2021/12/24 10:09:31;;;;;;;42.10;20.45;;;8.70;99.90;;;;;;5034320;28;20520;-59
2021/12/24 10:12:00;;;;;;;37.47;19.65;;;8.70;99.90;;;;;;5034082;28;20108;-59
2021/12/24 10:14:36;;;;;;;41.15;21.05;;;8.70;99.90;;;;;;5033086;28;20033;-59
2021/12/24 10:17:03;;;;;;;35.33;18.35;;;8.80;99.90;;;;;;5034185;28;20048;-59
2021/12/24 10:19:29;;;;;;;41.22;19.58;;;8.80;99.90;;;;;;5034108;28;20021;-59
2021/12/24 10:22:03;;;;;;;40.20;20.05;;;8.80;99.90;;;;;;5033998;28;20502;-59
2021/12/24 10:24:29;;;;;;;37.28;20.75;;;8.80;99.90;;;;;;5034223;28;20548;-59
2021/12/24 10:26:58;;;;;;;35.85;19.20;;;8.80;99.90;;;;;;5033897;28;20518;-59
2021/12/24 10:29:29;;;;;;;34.78;19.77;;;8.80;99.90;;;;;;5032973;28;20398;-59
2021/12/24 10:31:58;;;;;;;39.67;19.60;;;8.80;99.90;;;;;;5034222;28;20398;-59
2021/12/24 10:34:30;;;;;;;37.90;19.73;;;8.70;99.90;;;;;;5034153;28;20037;-59
2021/12/24 10:37:01;;;;;;;33.03;18.73;;;8.80;99.90;;;;;;5033934;28;20490;-59
2021/12/24 10:39:35;;;;;;;35.42;19.35;;;8.80;99.90;;;;;;5033617;28;20057;-59
2021/12/24 10:42:05;;;;;;;38.20;19.40;;;8.80;99.90;;;;;;5032882;28;20032;-59
2021/12/24 10:44:35;;;;;;;35.08;18.85;;;8.80;99.90;;;;;;5032914;28;20025;-59
2021/12/24 10:47:12;;;;;;;37.15;20.52;;;8.80;99.90;;;;;;5034050;28;20521;-59
2021/12/24 10:55:37;;;;;;;30.45;17.27;;;9.30;99.90;;;;;;5033735;28;20092;-59
2021/12/24 10:58:06;;;;;;;35.22;19.75;;;9.40;99.90;;;;;;5033935;28;20494;-59
2021/12/24 11:00:42;;;;;;;37.80;19.35;;;9.40;99.90;;;;;;5033410;28;20404;-59
2021/12/24 11:03:22;;;;;;;26.77;16.27;;;9.50;99.90;;;;;;5032154;28;20402;-59
2021/12/24 11:05:52;;;;;;;33.65;19.05;;;9.50;99.90;;;;;;5031452;28;20025;-59
2021/12/24 11:08:21;;;;;;;35.88;17.92;;;9.50;99.90;;;;;;5032793;28;20554;-59
2021/12/24 11:10:54;;;;;;;35.22;19.67;;;9.50;99.90;;;;;;5032984;28;20040;-59
2021/12/24 11:13:38;;;;;;;37.10;18.95;;;9.60;99.90;;;;;;5033299;28;20053;-59
2021/12/24 11:16:05;;;;;;;37.65;18.70;;;9.50;99.90;;;;;;5032883;28;20020;-59
2021/12/24 11:18:34;;;;;;;37.50;19.00;;;9.30;99.90;;;;;;5033077;28;20021;-59
2021/12/24 11:21:03;;;;;;;37.03;20.17;;;9.30;99.90;;;;;;5031694;28;20379;-59
2021/12/24 11:23:35;;;;;;;44.83;22.13;;;9.20;99.90;;;;;;5031994;28;20065;-59
2021/12/24 11:26:06;;;;;;;44.22;21.75;;;9.10;99.90;;;;;;5032810;28;20049;-59
2021/12/24 11:28:34;;;;;;;42.65;21.27;;;9.10;99.90;;;;;;5032947;28;20441;-59
2021/12/24 11:31:05;;;;;;;40.67;22.95;;;9.00;99.90;;;;;;5032772;28;20033;-59
2021/12/24 11:33:34;;;;;;;39.63;22.20;;;9.00;99.90;;;;;;5031572;28;20025;-59
2021/12/24 11:36:02;;;;;;;36.75;19.75;;;9.00;99.90;;;;;;5032503;28;20490;-59
2021/12/24 11:38:32;;;;;;;42.95;21.10;;;9.10;99.90;;;;;;5032629;28;20485;-59
2021/12/24 11:41:00;;;;;;;34.72;19.42;;;9.30;99.90;;;;;;5031266;28;20039;-59
2021/12/24 11:43:32;;;;;;;34.38;19.88;;;9.60;99.90;;;;;;5031158;28;20048;-59
2021/12/24 11:46:00;;;;;;;39.10;19.88;;;9.70;99.90;;;;;;5032395;28;20021;-59
2021/12/24 11:48:30;;;;;;;43.17;19.77;;;9.80;99.90;;;;;;5032365;28;20148;-59
2021/12/24 11:50:57;;;;;;;39.17;19.58;;;9.80;99.90;;;;;;5030540;28;20056;-59
2021/12/24 11:53:25;;;;;;;33.88;18.38;;;9.90;99.90;;;;;;5032015;28;20029;-59
2021/12/24 11:55:51;;;;;;;34.13;18.17;;;9.80;99.90;;;;;;5032104;28;20030;-59
2021/12/24 11:58:20;;;;;;;34.97;19.48;;;9.70;99.90;;;;;;5032266;28;20486;-59
2021/12/24 12:00:50;;;;;;;35.30;20.10;;;9.60;99.90;;;;;;5031851;28;20450;-59
2021/12/24 12:03:34;;;;;;;35.92;19.63;;;9.70;99.90;;;;;;5031672;28;20022;-59
2021/12/24 12:06:03;;;;;;;30.80;19.25;;;9.70;99.90;;;;;;5031857;28;20048;-59
2021/12/24 12:08:39;;;;;;;33.45;19.30;;;9.60;99.90;;;;;;5032326;28;20049;-59
2021/12/24 12:11:14;;;;;;;36.15;18.15;;;9.50;99.90;;;;;;5031964;28;20026;-59
2021/12/24 12:14:02;;;;;;;36.38;18.80;;;9.60;99.90;;;;;;5030955;28;20129;-59
2021/12/24 12:16:41;;;;;;;31.63;18.20;;;9.60;99.90;;;;;;5032252;28;20521;-59
2021/12/24 12:27:37;;;;;;;25.55;14.40;;;10.70;99.90;;;;;;5025047;28;20509;-59
2021/12/24 12:30:24;;;;;;;29.10;14.35;;;11.00;99.90;;;;;;5017957;28;20388;-59
2021/12/24 12:32:52;;;;;;;23.58;13.80;;;11.20;99.90;;;;;;5017068;28;20030;-59
2021/12/24 12:35:18;;;;;;;24.08;14.27;;;11.20;99.90;;;;;;5019954;28;20042;-59
2021/12/24 12:37:52;;;;;;;27.13;15.35;;;10.90;99.90;;;;;;5030611;28;20032;-59
2021/12/24 12:40:18;;;;;;;26.58;14.10;;;10.50;99.90;;;;;;5023954;28;20036;-59
2021/12/24 12:42:57;;;;;;;31.63;17.17;;;10.20;99.90;;;;;;5029164;28;20100;-59
2021/12/24 12:45:23;;;;;;;30.83;16.52;;;10.10;99.90;;;;;;5030558;28;20095;-59
2021/12/24 12:48:04;;;;;;;31.42;17.40;;;10.20;99.90;;;;;;5026720;28;20112;-59
2021/12/24 12:50:30;;;;;;;30.27;17.65;;;10.40;99.90;;;;;;5028172;28;20076;-59
2021/12/24 12:53:24;;;;;;;27.33;17.38;;;10.50;99.90;;;;;;5022434;28;20041;-59
2021/12/24 12:56:19;;;;;;;29.50;16.98;;;10.80;99.90;;;;;;5031804;28;20541;-59
2021/12/24 12:59:08;;;;;;;24.83;15.43;;;11.10;99.90;;;;;;5043919;28;20017;-59
2021/12/24 13:01:51;;;;;;;31.70;15.82;;;11.50;99.90;;;;;;5046878;28;20033;-59
2021/12/24 13:04:16;;;;;;;30.20;16.70;;;11.40;99.90;;;;;;5026507;28;20053;-59
2021/12/24 13:06:42;;;;;;;26.85;16.70;;;11.90;99.90;;;;;;5030662;28;20079;-59
2021/12/24 13:09:12;;;;;;;31.17;17.02;;;11.90;99.90;;;;;;5031873;28;20022;-59
2021/12/24 13:11:44;;;;;;;30.38;18.45;;;12.00;99.90;;;;;;5050437;28;20159;-59
2021/12/24 13:14:11;;;;;;;28.63;19.00;;;11.70;99.90;;;;;;5033428;28;20037;-59
2021/12/24 13:16:49;;;;;;;33.08;19.52;;;11.40;99.90;;;;;;5033936;28;20032;-59
2021/12/24 13:19:54;;;;;;;31.70;18.90;;;11.20;99.90;;;;;;5027562;28;20037;-59
2021/12/24 13:22:32;;;;;;;39.53;21.25;;;10.90;99.90;;;;;;5023738;28;20447;-59
2021/12/24 13:24:59;;;;;;;42.17;21.77;;;10.80;99.90;;;;;;5044587;28;20037;-59
2021/12/24 13:27:32;;;;;;;34.28;20.75;;;10.70;99.90;;;;;;5037513;28;20367;-60
2021/12/24 13:30:13;;;;;;;35.33;18.40;;;10.60;99.90;;;;;;5029671;28;20491;-59
2021/12/24 13:32:42;;;;;;;33.15;17.67;;;10.40;99.90;;;;;;5015841;28;20026;-59
2021/12/24 13:35:08;;;;;;;36.47;19.08;;;10.20;99.90;;;;;;5029745;28;20052;-59
2021/12/24 13:37:34;;;;;;;40.30;21.20;;;10.10;99.90;;;;;;5032238;28;20025;-59
2021/12/24 13:40:01;;;;;;;41.80;22.08;;;10.00;99.90;;;;;;5028535;28;20502;-59
2021/12/24 13:42:27;;;;;;;32.78;20.15;;;9.90;99.90;;;;;;5034397;28;20119;-59
2021/12/24 13:45:01;;;;;;;40.10;20.92;;;9.90;99.90;;;;;;5032076;28;20026;-59
2021/12/24 13:47:50;;;;;;;35.40;22.08;;;9.90;99.90;;;;;;5015703;28;20044;-59
2021/12/24 13:50:30;;;;;;;37.97;21.73;;;9.90;99.90;;;;;;5015662;28;20037;-59
2021/12/24 13:55:43;;;;;;;38.35;21.38;;;10.00;99.90;;;;;;5016056;28;20133;-59
2021/12/24 13:58:14;;;;;;;35.58;20.35;;;10.10;99.90;;;;;;5014340;28;20046;-59
2021/12/24 14:00:48;;;;;;;34.78;20.77;;;10.10;99.90;;;;;;5014610;28;20030;-59
2021/12/24 14:03:15;;;;;;;38.75;21.50;;;10.10;99.90;;;;;;5013677;28;20569;-59
2021/12/24 14:05:49;;;;;;;36.42;21.60;;;10.10;99.90;;;;;;5014503;28;20022;-59
2021/12/24 14:08:18;;;;;;;38.60;21.05;;;10.10;99.90;;;;;;5014512;28;20499;-59
2021/12/24 14:10:46;;;;;;;37.22;22.20;;;10.20;99.90;;;;;;5013312;28;20049;-59
2021/12/24 14:13:29;;;;;;;38.55;22.23;;;10.10;99.90;;;;;;5014641;28;20470;-59
2021/12/24 14:18:31;;;;;;;39.25;23.70;;;10.00;99.90;;;;;;5014413;28;20034;-59
2021/12/24 14:23:25;;;;;;;38.33;22.90;;;10.10;99.90;;;;;;5014366;28;20022;-59
2021/12/24 14:25:58;;;;;;;48.08;24.45;;;10.00;99.90;;;;;;5013478;28;20073;-59
2021/12/24 14:28:25;;;;;;;36.55;22.48;;;9.90;99.90;;;;;;5013776;28;20375;-59
2021/12/24 14:31:01;;;;;;;41.47;23.92;;;10.00;99.90;;;;;;5012661;28;20030;-59